KBIF/BIF METAR and TAF weather

Enter ICAO airport designator
Station Type Date Time Source
KBIF METAR 2020/03/29 20:58 UTC NOAA

KBIF 292058Z AUTO 22005KT 8SM OVC190 22/M10 A3000 RMK AO2 SLP119 T02181096 57027 $


Station Type Date Time Source
KBIF Decoded METAR 2020/03/29 20:58 UTC NOAA

Biggs Army Air Field / Ft. Bliss, TX, United States (KBIF) 31-51N 106-23W
Mar 29, 2020 - 04:58 PM EDT / 2020.03.29 2058 UTC
Wind: from the SW (220 degrees) at 6 MPH (5 KT):0
Visibility: 8 mile(s):0
Sky conditions: overcast
Temperature: 71.2 F (21.8 C)
Dew Point: 14.7 F (-9.6 C)
Relative Humidity: 11%
Pressure (altimeter): 30 in. Hg (1015 hPa)
Pressure tendency: 0.08 inches (2.7 hPa) lower than three hours ago
ob: KBIF 292058Z AUTO 22005KT 8SM OVC190 22/M10 A3000 RMK AO2 SLP119 T02181096 57027
cycle: 21

Station Type Date Time Source
KBIF TAF 2020/03/29 14:04 UTC NOAA

TAF KBIF 291401Z 2914/3020 VRB06KT 9999 SCT210 QNH3009INS
BECMG 2917/2918 17012KT 9999 FEW100 QNH2994INS
BECMG 3004/3005 VRB06KT 9999 SKC QNH2999INS
BECMG 3017/3018 22010G25KT 9999 FEW100 QNH2999INS TX23/2922Z TN03/3010Z

Example: see airport list